Time;durP1;ratioP1;P1;durP2;ratioP2;P2;SDS_P1;SDS_P2;PMS_P1;PMS_P2;Temp;Humidity;BMP_temperature;BMP_pressure;BME280_temperature;BME280_humidity;BME280_pressure;Samples;Min_cycle;Max_cycle;Signal;HPM_P1;HPM_P2
2022/10/17 00:00:47;;;;;;;12.03;4.50;;;;;;;10.35;100.00;101397.84;7391654;19;20411;-58
2022/10/17 00:03:16;;;;;;;8.10;4.43;;;;;;;10.27;100.00;101391.41;7394389;19;20396;-57
2022/10/17 00:05:48;;;;;;;13.77;4.47;;;;;;;10.45;100.00;101395.81;7390858;19;20438;-56
2022/10/17 00:08:18;;;;;;;7.50;4.47;;;;;;;10.41;100.00;101394.69;7393161;19;20428;-58
2022/10/17 00:10:57;;;;;;;12.40;4.80;;;;;;;10.36;100.00;101399.63;7388227;19;20749;-60
2022/10/17 00:13:29;;;;;;;12.53;4.23;;;;;;;10.30;100.00;101409.63;7393682;19;20388;-61
2022/10/17 00:15:59;;;;;;;10.80;4.90;;;;;;;10.26;100.00;101402.53;7391085;19;20431;-58
2022/10/17 00:18:28;;;;;;;12.50;5.17;;;;;;;10.29;100.00;101407.84;7392374;19;20407;-55
2022/10/17 00:20:58;;;;;;;12.77;5.10;;;;;;;10.35;100.00;101400.44;7390219;19;20423;-59
2022/10/17 00:23:29;;;;;;;15.33;5.07;;;;;;;10.41;100.00;101394.69;7393358;19;20789;-57
2022/10/17 00:26:02;;;;;;;11.30;4.50;;;;;;;10.44;100.00;101389.75;7390446;19;20415;-61
2022/10/17 00:28:34;;;;;;;9.80;4.40;;;;;;;10.44;100.00;101386.28;7387783;19;20777;-56
2022/10/17 00:31:06;;;;;;;12.00;4.30;;;;;;;10.51;100.00;101393.56;7390686;19;20419;-58
2022/10/17 00:33:38;;;;;;;11.00;4.80;;;;;;;10.61;100.00;101406.09;7395198;19;20396;-55
2022/10/17 00:36:09;;;;;;;11.50;4.53;;;;;;;10.54;100.00;101406.59;7389763;19;20454;-56
2022/10/17 00:38:39;;;;;;;9.53;4.80;;;;;;;10.58;100.00;101408.53;7392084;19;20439;-56
2022/10/17 00:41:13;;;;;;;14.47;4.63;;;;;;;10.58;100.00;101399.91;7390183;19;20839;-60
2022/10/17 00:43:59;;;;;;;14.60;4.53;;;;;;;10.62;100.00;101409.59;7393603;19;20403;-59
2022/10/17 00:46:30;;;;;;;12.97;5.80;;;;;;;10.32;100.00;101420.94;7390923;19;20415;-57
2022/10/17 00:49:01;;;;;;;13.40;5.33;;;;;;;10.30;100.00;101422.50;7391496;19;20424;-60
2022/10/17 00:51:35;;;;;;;7.93;4.87;;;;;;;10.34;100.00;101427.03;7390289;19;20416;-57
2022/10/17 00:54:05;;;;;;;9.63;4.57;;;;;;;10.44;100.00;101424.97;7392426;19;20386;-57
2022/10/17 00:56:35;;;;;;;9.13;4.73;;;;;;;10.44;100.00;101430.13;7389842;19;20979;-57
2022/10/17 00:59:07;;;;;;;12.53;4.53;;;;;;;10.43;100.00;101416.34;7391397;19;20409;-52
2022/10/17 01:01:36;;;;;;;17.63;4.70;;;;;;;10.45;100.00;101417.31;7389747;19;20408;-58
2022/10/17 01:04:06;;;;;;;16.97;5.23;;;;;;;10.57;100.00;101419.69;7392902;19;20398;-50
2022/10/17 01:06:35;;;;;;;10.53;4.60;;;;;;;10.56;100.00;101425.63;7389893;19;20416;-57
2022/10/17 01:09:05;;;;;;;10.23;4.43;;;;;;;10.51;100.00;101437.41;7391092;19;20419;-52
2022/10/17 01:11:40;;;;;;;17.90;6.80;;;;;;;10.61;100.00;101444.81;7389833;19;20427;-59
2022/10/17 01:14:22;;;;;;;34.27;13.03;;;;;;;10.55;100.00;101452.22;7392582;19;20407;-59
2022/10/17 01:16:55;;;;;;;14.60;7.40;;;;;;;10.52;100.00;101449.50;7389280;19;20409;-53
2022/10/17 01:19:37;;;;;;;6.50;3.60;;;;;;;10.48;100.00;101451.03;7387725;19;20757;-60
2022/10/17 01:22:11;;;;;;;7.80;4.27;;;;;;;10.51;100.00;101463.22;7393803;19;20403;-59
2022/10/17 01:25:09;;;;;;;10.97;4.77;;;;;;;10.53;100.00;101451.28;7396925;19;20910;-58
2022/10/17 01:27:52;;;;;;;9.80;6.07;;;;;;;10.65;100.00;101440.69;7400747;19;20401;-57
2022/10/17 01:30:51;;;;;;;18.33;8.47;;;;;;;10.79;100.00;101436.25;7396723;19;20436;-52
2022/10/17 01:33:32;;;;;;;9.67;5.40;;;;;;;10.78;100.00;101443.09;7393632;19;20435;-62
2022/10/17 01:36:05;;;;;;;10.30;4.70;;;;;;;10.74;100.00;101440.28;7395631;19;20950;-61
2022/10/17 01:38:37;;;;;;;6.53;4.57;;;;;;;10.89;100.00;101443.69;7397166;19;20415;-60
2022/10/17 01:41:09;;;;;;;8.97;5.30;;;;;;;10.93;100.00;101443.00;7399315;19;20462;-55
2022/10/17 01:43:41;;;;;;;7.30;4.47;;;;;;;10.79;100.00;101449.16;7398906;19;20397;-61
2022/10/17 01:46:14;;;;;;;10.20;4.73;;;;;;;10.79;100.00;101449.16;7396988;19;20454;-57
2022/10/17 01:48:47;;;;;;;10.77;4.67;;;;;;;10.88;100.00;101454.78;7397244;19;20418;-58
2022/10/17 01:51:20;;;;;;;12.50;4.83;;;;;;;10.81;100.00;101444.97;7395524;19;20423;-60
2022/10/17 01:53:54;;;;;;;8.87;4.50;;;;;;;10.90;100.00;101437.72;7398803;19;20407;-56
2022/10/17 01:56:26;;;;;;;9.20;4.70;;;;;;;10.90;100.00;101437.72;7395673;19;20434;-59
2022/10/17 01:58:59;;;;;;;7.70;4.47;;;;;;;10.97;100.00;101440.59;7396697;19;20439;-54
2022/10/17 02:01:29;;;;;;;6.47;3.90;;;;;;;10.90;100.00;101447.13;7395619;19;20411;-55
2022/10/17 02:04:03;;;;;;;7.63;4.30;;;;;;;10.88;100.00;101444.47;7397801;19;20381;-59
2022/10/17 02:06:36;;;;;;;11.40;4.37;;;;;;;10.99;100.00;101447.63;7396021;19;20963;-54
2022/10/17 02:09:17;;;;;;;6.87;3.50;;;;;;;10.84;100.00;101446.81;7396343;19;20440;-55
2022/10/17 02:12:05;;;;;;;12.73;4.50;;;;;;;10.97;100.00;101440.59;7397399;19;20423;-57
2022/10/17 02:14:43;;;;;;;7.90;3.53;;;;;;;10.97;100.00;101438.91;7394316;19;20424;-60
2022/10/17 02:17:16;;;;;;;13.63;3.60;;;;;;;10.97;100.00;101440.59;7398278;19;20413;-56
2022/10/17 02:19:56;;;;;;;8.83;4.60;;;;;;;10.89;100.00;101446.25;7392874;19;20440;-59
2022/10/17 02:22:32;;;;;;;12.77;3.50;;;;;;;10.84;100.00;101442.56;7397847;19;20404;-58
2022/10/17 02:25:05;;;;;;;7.23;3.70;;;;;;;10.77;100.00;101441.34;7395349;19;20464;-54
2022/10/17 02:27:38;;;;;;;14.10;3.80;;;;;;;10.84;100.00;101445.13;7396667;19;20423;-60
2022/10/17 02:30:11;;;;;;;6.67;3.57;;;;;;;10.98;100.00;101442.38;7396749;19;20416;-56
2022/10/17 02:32:43;;;;;;;14.63;3.90;;;;;;;10.90;100.00;101442.88;7397669;19;20390;-56
2022/10/17 02:35:22;;;;;;;16.43;4.37;;;;;;;10.99;100.00;101441.56;7392487;19;20438;-62
2022/10/17 02:37:52;;;;;;;6.17;3.60;;;;;;;11.02;100.00;101447.75;7396542;19;20405;-57
2022/10/17 02:40:24;;;;;;;8.67;3.60;;;;;;;10.94;100.00;101442.19;7394867;19;20429;-60
2022/10/17 02:42:54;;;;;;;8.77;4.00;;;;;;;11.00;100.00;101444.22;7397657;19;20408;-60
2022/10/17 02:45:25;;;;;;;10.60;4.07;;;;;;;10.99;100.00;101436.41;7393957;19;20448;-59
2022/10/17 02:47:57;;;;;;;6.50;3.80;;;;;;;10.98;100.00;101442.38;7396302;19;20407;-55
2022/10/17 02:50:37;;;;;;;5.03;3.53;;;;;;;11.04;100.00;101432.34;7394711;19;20416;-56
2022/10/17 02:53:08;;;;;;;9.33;4.80;;;;;;;11.04;100.00;101424.59;7397271;19;20746;-54
2022/10/17 02:55:42;;;;;;;6.03;3.70;;;;;;;11.12;100.00;101428.47;7393096;19;20966;-57
2022/10/17 02:58:15;;;;;;;9.90;4.30;;;;;;;11.17;100.00;101432.16;7395915;19;20435;-50
2022/10/17 03:00:45;;;;;;;13.50;3.90;;;;;;;11.28;100.00;101422.34;7393817;19;20410;-59
2022/10/17 03:03:23;;;;;;;11.00;4.17;;;;;;;11.24;100.00;101417.88;7396811;19;20398;-56
2022/10/17 03:05:55;;;;;;;8.73;3.80;;;;;;;11.22;100.00;101424.63;7393250;19;20415;-58
2022/10/17 03:08:25;;;;;;;6.40;3.60;;;;;;;11.21;100.00;101423.75;7395191;19;20431;-54
2022/10/17 03:10:54;;;;;;;10.80;4.30;;;;;;;11.30;100.00;101422.44;7394005;19;20479;-56
2022/10/17 03:13:24;;;;;;;23.57;14.83;;;;;;;11.55;100.00;101418.47;7396564;19;20401;-57
2022/10/17 03:15:53;;;;;;;18.50;10.37;;;;;;;11.75;100.00;101425.47;7392603;19;20889;-55
2022/10/17 03:18:22;;;;;;;23.63;14.77;;;;;;;12.02;100.00;101437.91;7394963;19;20412;-62
2022/10/17 03:20:54;;;;;;;29.07;16.63;;;;;;;12.10;100.00;101445.22;7393256;19;20418;-59
2022/10/17 03:23:24;;;;;;;23.17;13.00;;;;;;;12.09;100.00;101451.19;7396023;19;20407;-57
2022/10/17 03:25:53;;;;;;;11.97;6.00;;;;;;;12.07;100.00;101455.41;7392556;19;20422;-56
2022/10/17 03:28:23;;;;;;;10.77;5.50;;;;;;;11.99;100.00;101463.66;7394179;19;20406;-58
2022/10/17 03:30:52;;;;;;;4.30;3.73;;;;;;;11.88;100.00;101478.66;7393855;19;20486;-55
2022/10/17 03:33:21;;;;;;;8.07;3.50;;;;;;;11.87;100.00;101478.59;7395848;19;20383;-55
2022/10/17 03:35:51;;;;;;;7.13;3.23;;;;;;;11.73;100.00;101481.41;7394849;19;20448;-56
2022/10/17 03:38:23;;;;;;;9.33;4.60;;;;;;;11.74;100.00;101483.16;7394028;19;20434;-57
2022/10/17 03:40:56;;;;;;;8.83;4.77;;;;;;;11.81;100.00;101483.47;7393093;19;20417;-57
2022/10/17 03:43:26;;;;;;;6.17;3.90;;;;;;;11.77;100.00;101481.53;7395390;19;20403;-54
2022/10/17 03:45:55;;;;;;;5.83;3.60;;;;;;;11.70;100.00;101486.41;7389404;19;20497;-54
2022/10/17 03:48:24;;;;;;;6.00;4.40;;;;;;;11.69;100.00;101489.81;7393769;19;20411;-56
2022/10/17 03:51:00;;;;;;;7.50;4.13;;;;;;;11.78;100.00;101485.91;7390719;19;20408;-59
2022/10/17 03:53:32;;;;;;;7.00;3.97;;;;;;;11.75;100.00;101484.94;7395073;19;20943;-57
2022/10/17 03:56:11;;;;;;;5.67;4.10;;;;;;;11.74;100.00;101477.09;7391277;19;20457;-53
2022/10/17 03:58:40;;;;;;;5.73;4.47;;;;;;;11.73;100.00;101490.84;7393436;19;20410;-59
2022/10/17 04:01:11;;;;;;;8.13;3.47;;;;;;;11.71;100.00;101487.31;7392267;19;20444;-57
2022/10/17 04:03:41;;;;;;;9.33;4.73;;;;;;;11.70;100.00;101477.78;7394428;19;20482;-58
2022/10/17 04:06:13;;;;;;;12.60;3.90;;;;;;;11.64;100.00;101478.34;7392115;19;20425;-52
2022/10/17 04:08:45;;;;;;;8.90;3.20;;;;;;;11.62;100.00;101485.16;7393149;19;20426;-58
2022/10/17 04:11:16;;;;;;;5.67;3.63;;;;;;;11.66;100.00;101483.59;7392338;19;20436;-58
2022/10/17 04:13:46;;;;;;;5.90;3.13;;;;;;;11.63;100.00;101484.34;7394068;19;20384;-56
2022/10/17 04:16:18;;;;;;;4.90;2.63;;;;;;;11.66;100.00;101489.66;7391072;19;20425;-58
2022/10/17 04:18:47;;;;;;;10.33;4.10;;;;;;;11.69;100.00;101478.59;7393395;19;20422;-58
2022/10/17 04:21:17;;;;;;;5.47;3.63;;;;;;;11.63;100.00;101473.13;7391816;19;20415;-53
2022/10/17 04:23:51;;;;;;;9.97;3.97;;;;;;;11.63;100.00;101474.00;7393746;19;20382;-58
2022/10/17 04:26:21;;;;;;;6.67;3.07;;;;;;;11.56;100.00;101466.75;7391480;19;20979;-58
2022/10/17 04:28:50;;;;;;;6.63;3.00;;;;;;;11.52;100.00;101475.16;7395166;19;20777;-54
2022/10/17 04:31:20;;;;;;;6.17;4.10;;;;;;;11.53;100.00;101469.22;7393744;19;20444;-59
2022/10/17 04:33:50;;;;;;;7.87;3.73;;;;;;;11.57;100.00;101477.19;7393514;19;20379;-57
2022/10/17 04:36:22;;;;;;;8.53;3.00;;;;;;;11.51;100.00;101474.28;7390613;19;20948;-59
2022/10/17 04:38:54;;;;;;;4.50;3.10;;;;;;;11.45;100.00;101467.09;7392291;19;20420;-55
2022/10/17 04:41:24;;;;;;;6.23;2.63;;;;;;;11.46;100.00;101468.00;7390247;19;20421;-58
2022/10/17 04:43:54;;;;;;;6.70;4.00;;;;;;;11.49;100.00;101463.00;7393427;19;20386;-56
2022/10/17 04:46:23;;;;;;;6.50;4.23;;;;;;;11.54;100.00;101453.75;7390905;19;20420;-61
2022/10/17 04:48:53;;;;;;;5.23;3.40;;;;;;;11.48;100.00;101451.78;7391826;19;20411;-60
2022/10/17 04:51:22;;;;;;;5.10;3.87;;;;;;;11.46;100.00;101450.81;7389905;19;20457;-55
2022/10/17 04:53:57;;;;;;;4.90;3.50;;;;;;;11.51;100.00;101448.44;7392982;19;20394;-57
2022/10/17 04:56:27;;;;;;;4.77;3.17;;;;;;;11.47;100.00;101444.84;7389876;19;20433;-59
2022/10/17 04:58:56;;;;;;;5.40;3.20;;;;;;;11.36;100.00;101443.41;7397924;19;20437;-57
2022/10/17 05:01:26;;;;;;;3.87;3.00;;;;;;;11.25;100.00;101439.41;7397165;19;20422;-59
2022/10/17 05:03:55;;;;;;;6.67;4.13;;;;;;;11.21;100.00;101433.19;7400384;19;20408;-54
2022/10/17 05:06:27;;;;;;;7.83;3.57;;;;;;;11.19;100.00;101430.53;7397102;19;20440;-56
2022/10/17 05:08:59;;;;;;;4.47;3.40;;;;;;;11.24;100.00;101437.63;7398344;19;20412;-60
2022/10/17 05:11:30;;;;;;;6.27;4.17;;;;;;;11.28;100.00;101434.41;7397823;19;20445;-59
2022/10/17 05:14:01;;;;;;;5.73;3.97;;;;;;;11.30;100.00;101427.59;7402995;19;20393;-59
2022/10/17 05:16:31;;;;;;;6.60;3.60;;;;;;;11.24;100.00;101423.03;7395858;19;20432;-56
2022/10/17 05:19:01;;;;;;;5.70;3.77;;;;;;;11.19;100.00;101414.16;7397761;19;20413;-59
2022/10/17 05:21:31;;;;;;;5.60;3.50;;;;;;;11.23;100.00;101410.03;7397370;19;20416;-59
2022/10/17 05:24:23;;;;;;;5.03;3.80;;;;;;;11.21;100.00;101407.38;7397142;19;20378;-61
2022/10/17 05:26:53;;;;;;;6.77;3.70;;;;;;;11.14;100.00;101403.63;7399345;19;20733;-60
2022/10/17 05:29:22;;;;;;;6.13;3.80;;;;;;;11.08;100.00;101400.72;7394275;19;20425;-58
2022/10/17 05:31:52;;;;;;;7.43;3.70;;;;;;;11.03;100.00;101408.22;7403011;19;20967;-55
2022/10/17 05:34:21;;;;;;;4.90;3.60;;;;;;;11.06;100.00;101398.06;7399815;19;20385;-53
2022/10/17 05:36:51;;;;;;;4.07;3.40;;;;;;;11.05;100.00;101400.56;7401319;19;20441;-60
2022/10/17 05:39:22;;;;;;;26.50;13.57;;;;;;;11.11;100.00;101399.97;7396642;19;20410;-60
2022/10/17 05:41:54;;;;;;;24.47;13.23;;;;;;;11.15;100.00;101389.88;7398488;19;20413;-58
2022/10/17 05:44:23;;;;;;;11.80;6.90;;;;;;;11.12;100.00;101392.31;7396906;19;20397;-56
2022/10/17 05:46:53;;;;;;;8.10;4.67;;;;;;;11.10;100.00;101393.94;7399010;19;20387;-58
2022/10/17 05:49:22;;;;;;;8.93;4.50;;;;;;;11.08;100.00;101396.44;7393554;19;20413;-58
2022/10/17 05:52:11;;;;;;;12.00;6.70;;;;;;;11.06;100.00;101387.72;7399849;19;20440;-60
2022/10/17 05:54:41;;;;;;;5.47;4.20;;;;;;;11.08;100.00;101385.22;7396093;19;20381;-57
2022/10/17 05:57:13;;;;;;;14.50;4.33;;;;;;;10.97;100.00;101378.63;7398041;19;20400;-57
2022/10/17 05:59:42;;;;;;;11.20;4.50;;;;;;;10.98;100.00;101373.53;7393196;19;20413;-56
2022/10/17 06:02:13;;;;;;;6.97;4.50;;;;;;;10.97;100.00;101376.06;7398048;19;20739;-55
2022/10/17 06:04:44;;;;;;;5.20;3.87;;;;;;;10.93;100.00;101370.72;7394073;19;20425;-60
2022/10/17 06:07:14;;;;;;;6.90;3.87;;;;;;;11.03;100.00;101374.66;7396646;19;20384;-56
2022/10/17 06:09:44;;;;;;;7.03;4.00;;;;;;;11.03;100.00;101382.41;7389022;19;20908;-58
2022/10/17 06:12:17;;;;;;;5.60;4.00;;;;;;;11.05;100.00;101379.91;7396692;19;20383;-57
2022/10/17 06:14:46;;;;;;;8.20;4.80;;;;;;;10.93;100.00;101381.06;7393448;19;20436;-55
2022/10/17 06:17:16;;;;;;;4.50;3.50;;;;;;;11.04;100.00;101385.88;7392924;19;20947;-55
2022/10/17 06:19:46;;;;;;;7.10;4.43;;;;;;;11.02;100.00;101384.94;7395784;19;20408;-55
2022/10/17 06:22:16;;;;;;;11.60;3.80;;;;;;;10.94;100.00;101375.06;7400065;19;20384;-54
2022/10/17 06:24:45;;;;;;;7.77;4.50;;;;;;;11.05;100.00;101377.31;7397639;19;20931;-60
2022/10/17 06:27:17;;;;;;;7.33;3.60;;;;;;;11.11;100.00;101375.03;7401153;19;20723;-56
2022/10/17 06:29:47;;;;;;;6.70;4.00;;;;;;;11.03;100.00;101376.38;7392116;19;20404;-56
2022/10/17 06:32:16;;;;;;;7.03;3.73;;;;;;;11.04;100.00;101371.25;7397281;19;20384;-60
2022/10/17 06:34:46;;;;;;;11.07;4.00;;;;;;;11.03;100.00;101373.78;7396987;19;20408;-57
2022/10/17 06:37:15;;;;;;;7.50;4.07;;;;;;;11.20;100.00;101375.50;7398601;19;20385;-58
2022/10/17 06:39:44;;;;;;;13.93;5.33;;;;;;;11.16;100.00;101368.41;7391464;19;20440;-53
2022/10/17 06:42:16;;;;;;;9.70;4.73;;;;;;;11.15;100.00;101371.81;7397169;19;20382;-56
2022/10/17 06:44:46;;;;;;;7.80;4.50;;;;;;;11.15;100.00;101376.97;7391759;19;20421;-58
2022/10/17 06:47:15;;;;;;;30.93;15.57;;;;;;;11.18;100.00;101377.09;7398246;19;20418;-57
2022/10/17 06:49:48;;;;;;;50.40;25.03;;;;;;;11.29;100.00;101379.34;7389623;19;20413;-61
2022/10/17 06:52:18;;;;;;;9.07;5.77;;;;;;;11.19;100.00;101378.88;7395778;19;20410;-58
2022/10/17 06:54:48;;;;;;;8.77;4.60;;;;;;;11.21;100.00;101384.13;7390783;19;20409;-57
2022/10/17 06:57:20;;;;;;;5.37;4.40;;;;;;;11.30;100.00;101383.69;7395202;19;20422;-57
2022/10/17 06:59:49;;;;;;;9.83;5.40;;;;;;;11.34;100.00;101398.53;7390387;19;20403;-57
2022/10/17 07:02:19;;;;;;;8.20;4.40;;;;;;;11.38;100.00;101390.09;7395757;19;20424;-54
2022/10/17 07:04:48;;;;;;;14.40;4.40;;;;;;;11.45;100.00;101386.13;7392834;19;20417;-60
2022/10/17 07:07:18;;;;;;;11.60;6.83;;;;;;;11.75;100.00;101397.03;7395784;19;20398;-56
2022/10/17 07:09:47;;;;;;;9.93;6.30;;;;;;;11.77;100.00;101393.63;7391086;19;20405;-60
2022/10/17 07:12:16;;;;;;;11.77;7.50;;;;;;;12.12;100.00;101392.75;7395943;19;20420;-54
2022/10/17 07:14:49;;;;;;;44.90;24.07;;;;;;;12.13;100.00;101396.19;7392392;19;20767;-57
2022/10/17 07:17:18;;;;;;;18.03;11.60;;;;;;;12.12;100.00;101407.38;7396015;19;20421;-58
2022/10/17 07:19:48;;;;;;;14.60;8.50;;;;;;;12.04;100.00;101414.75;7389274;19;20424;-58
2022/10/17 07:22:17;;;;;;;4.83;3.67;;;;;;;12.04;100.00;101425.09;7395411;19;20421;-56
2022/10/17 07:24:47;;;;;;;8.00;4.10;;;;;;;12.05;100.00;101433.75;7391259;19;20426;-56
2022/10/17 07:27:36;;;;;;;13.50;5.63;;;;;;;12.13;100.00;101438.47;7396228;19;20397;-55
2022/10/17 07:30:10;;;;;;;12.03;7.60;;;;;;;12.31;100.00;101434.06;7391553;19;21076;-56
2022/10/17 07:32:39;;;;;;;12.33;8.10;;;;;;;12.45;100.00;101426.94;7399908;19;20390;-59
2022/10/17 07:35:09;;;;;;;5.30;3.97;;;;;;;12.50;100.00;101425.41;7391037;19;20411;-56
2022/10/17 07:37:39;;;;;;;23.30;6.87;;;;;;;12.58;100.00;101413.72;7393844;19;20377;-54
2022/10/17 07:40:12;;;;;;;7.50;5.33;;;;;;;12.66;100.00;101432.16;7390609;19;20782;-56
2022/10/17 07:42:41;;;;;;;8.53;4.10;;;;;;;12.69;100.00;101437.47;7395618;19;20395;-57
2022/10/17 07:45:14;;;;;;;7.77;4.97;;;;;;;12.78;100.00;101437.88;7392431;19;20441;-51
2022/10/17 07:47:44;;;;;;;7.90;5.50;;;;;;;12.81;100.00;101443.19;7394101;19;20398;-57
2022/10/17 07:50:13;;;;;;;10.30;5.33;;;;;;;12.90;100.00;101436.63;7391011;19;20417;-59
2022/10/17 07:52:44;;;;;;;10.63;4.10;;;;;;;12.90;100.00;101440.13;7394453;19;20399;-59
2022/10/17 07:55:13;;;;;;;7.10;4.40;;;;;;;13.05;100.00;101457.13;7391317;19;20396;-57
2022/10/17 07:57:42;;;;;;;5.27;3.57;;;;;;;13.13;100.00;101462.66;7393718;19;20727;-58
2022/10/17 08:00:15;;;;;;;4.37;3.50;;;;;;;13.24;100.00;101464.88;7391103;19;20781;-60
2022/10/17 08:02:44;;;;;;;6.57;3.87;;;;;;;13.32;100.00;101457.41;7394513;19;20418;-59
2022/10/17 08:05:14;;;;;;;5.70;3.70;;;;;;;13.40;100.00;101457.75;7391738;19;20441;-55
2022/10/17 08:07:43;;;;;;;5.60;3.77;;;;;;;13.49;100.00;101459.88;7393271;19;20397;-59
2022/10/17 08:10:14;;;;;;;8.80;4.30;;;;;;;13.56;100.00;101480.03;7391255;19;20413;-59
2022/10/17 08:12:43;;;;;;;11.83;5.03;;;;;;;13.63;100.00;101466.50;7394213;19;20942;-58
2022/10/17 08:15:15;;;;;;;8.40;4.30;;;;;;;13.69;100.00;101459.78;7391452;19;20424;-58
2022/10/17 08:17:44;;;;;;;7.03;4.47;;;;;;;13.74;100.00;101458.28;7392961;19;20950;-61
2022/10/17 08:20:14;;;;;;;7.57;4.03;;;;;;;13.79;100.00;101459.31;7389863;19;20418;-57
2022/10/17 08:22:43;;;;;;;10.67;6.77;;;;;;;13.88;100.00;101466.56;7393789;19;20426;-54
2022/10/17 08:25:13;;;;;;;6.50;4.83;;;;;;;13.93;100.00;101459.88;7389963;19;20467;-60
2022/10/17 08:27:42;;;;;;;7.33;3.80;;;;;;;14.00;100.00;101454.09;7392821;19;20457;-57
2022/10/17 08:30:15;;;;;;;11.27;6.30;;;;;;;14.12;100.00;101445.00;7389711;19;20448;-56
2022/10/17 08:32:45;;;;;;;7.67;3.70;;;;;;;14.22;100.00;101433.25;7389987;19;20375;-59
2022/10/17 08:35:15;;;;;;;7.00;3.90;;;;;;;14.30;100.00;101434.44;7392506;19;20419;-55
2022/10/17 08:37:44;;;;;;;28.80;16.77;;;;;;;14.43;100.00;101439.28;7392561;19;20403;-57
2022/10/17 08:40:19;;;;;;;10.47;4.27;;;;;;;14.47;100.00;101440.28;7389203;19;20441;-56
2022/10/17 08:43:02;;;;;;;8.00;4.87;;;;;;;14.52;100.00;101448.22;7393298;19;20402;-57
2022/10/17 08:45:37;;;;;;;15.90;6.47;;;;;;;14.56;100.00;101442.31;7387367;19;20786;-53
2022/10/17 08:48:11;;;;;;;5.40;3.30;;;;;;;14.64;100.00;101437.38;7392011;19;20391;-53
2022/10/17 08:50:44;;;;;;;12.70;7.80;;;;;;;14.72;100.00;101442.00;7389373;19;20411;-58
2022/10/17 08:53:18;;;;;;;10.23;3.93;;;;;;;14.76;100.00;101447.38;7392788;19;20375;-54
2022/10/17 08:55:49;;;;;;;4.73;3.33;;;;;;;14.84;100.00;101440.72;7390811;19;20415;-55
2022/10/17 08:58:22;;;;;;;9.87;4.77;;;;;;;14.89;100.00;101449.56;7391108;19;20427;-58
2022/10/17 09:01:00;;;;;;;5.97;3.50;;;;;;;14.90;100.00;101446.13;7388045;19;20437;-55
2022/10/17 09:03:40;;;;;;;8.03;3.63;;;;;;;15.00;100.00;101462.94;7390077;19;20404;-55
2022/10/17 09:06:19;;;;;;;11.10;4.70;;;;;;;15.10;100.00;101458.94;7386559;19;20424;-55
2022/10/17 09:08:58;;;;;;;12.23;4.50;;;;;;;15.11;100.00;101460.69;7391259;19;20436;-54
2022/10/17 09:11:40;;;;;;;8.60;4.27;;;;;;;15.20;100.00;101463.63;7390159;19;20407;-60
2022/10/17 09:14:20;;;;;;;7.57;5.83;;;;;;;15.29;100.00;101464.75;7390894;19;20722;-52
2022/10/17 09:17:06;;;;;;;5.70;3.83;;;;;;;15.32;100.00;101476.13;7389426;19;20445;-58
2022/10/17 09:19:37;;;;;;;14.50;5.10;;;;;;;15.39;100.00;101474.63;7388101;19;20463;-61
2022/10/17 09:22:10;;;;;;;9.10;4.60;;;;;;;15.40;100.00;101468.59;7393642;19;20392;-55
2022/10/17 09:24:43;;;;;;;12.70;5.40;;;;;;;15.48;100.00;101466.25;7387299;19;20923;-61
2022/10/17 09:27:21;;;;;;;9.13;3.70;;;;;;;15.53;100.00;101468.16;7392780;19;20771;-56
2022/10/17 09:29:54;;;;;;;6.73;3.80;;;;;;;15.62;100.00;101464.09;7389815;19;20454;-55
2022/10/17 09:32:27;;;;;;;7.00;3.40;;;;;;;15.66;100.00;101476.38;7395236;19;20764;-57
2022/10/17 09:34:57;;;;;;;5.70;3.47;;;;;;;15.72;100.00;101486.06;7390734;19;20429;-60
2022/10/17 09:37:32;;;;;;;6.67;3.13;;;;;;;15.72;100.00;101492.16;7395418;19;20392;-56
2022/10/17 09:40:02;;;;;;;7.63;3.83;;;;;;;15.73;100.00;101493.94;7386920;19;20424;-61
2022/10/17 09:42:32;;;;;;;5.53;3.97;;;;;;;15.76;100.00;101494.03;7390045;19;20384;-55
2022/10/17 09:45:17;;;;;;;6.90;3.27;;;;;;;15.82;100.00;101482.03;7396281;19;20429;-59
2022/10/17 09:47:55;;;;;;;6.60;3.80;;;;;;;15.89;100.00;101478.81;7398106;19;20405;-56
2022/10/17 09:50:32;;;;;;;125.97;71.47;;;;;;;16.03;100.00;101477.56;7396072;19;20429;-58
2022/10/17 09:53:07;;;;;;;10.97;3.93;;;;;;;16.08;100.00;101479.41;7398597;19;20413;-60
2022/10/17 09:55:41;;;;;;;5.03;3.50;;;;;;;16.19;100.00;101488.44;7395010;19;20417;-58
2022/10/17 09:58:11;;;;;;;5.63;3.50;;;;;;;16.22;100.00;101485.94;7397370;19;20398;-59
2022/10/17 10:00:43;;;;;;;9.90;3.90;;;;;;;16.35;100.00;101483.69;7394658;19;20429;-60
2022/10/17 10:03:17;;;;;;;7.07;4.23;;;;;;;16.44;100.00;101483.94;7396054;19;20394;-53
2022/10/17 10:06:01;;;;;;;5.47;3.53;;;;;;;16.50;100.00;101483.25;7395429;19;20973;-55
2022/10/17 10:08:33;;;;;;;6.67;3.57;;;;;;;16.57;100.00;101487.81;7395897;19;20515;-55
2022/10/17 10:11:04;;;;;;;8.80;3.47;;;;;;;16.65;100.00;101482.78;7395740;19;20411;-60
2022/10/17 10:13:34;;;;;;;6.60;3.93;;;;;;;16.71;100.00;101490.78;7397368;19;20411;-61
2022/10/17 10:16:18;;;;;;;5.20;3.70;;;;;;;16.79;100.00;101480.56;7394821;19;20412;-62
2022/10/17 10:18:51;;;;;;;5.70;3.37;;;;;;;16.86;100.00;101487.72;7396088;19;20412;-58
2022/10/17 10:21:21;;;;;;;12.40;4.03;;;;;;;16.95;100.00;101487.09;7393698;19;20421;-56
2022/10/17 10:24:07;;;;;;;8.53;3.57;;;;;;;16.97;100.00;101496.72;7396496;19;20916;-60
2022/10/17 10:26:40;;;;;;;7.30;3.87;;;;;;;17.03;100.00;101500.38;7392407;19;20407;-60
2022/10/17 10:29:24;;;;;;;10.90;4.03;;;;;;;17.08;100.00;101510.06;7390665;19;20877;-54
2022/10/17 10:31:54;;;;;;;6.60;3.20;;;;;;;17.16;100.00;101512.88;7396437;19;20456;-56
2022/10/17 10:34:28;;;;;;;8.03;4.23;;;;;;;17.25;100.00;101512.25;7394709;19;20391;-58
2022/10/17 10:37:03;;;;;;;10.10;4.27;;;;;;;17.35;100.00;101519.47;7397332;19;20381;-59
2022/10/17 10:39:38;;;;;;;6.67;3.90;;;;;;;17.45;100.00;101512.75;7396940;19;20760;-58
2022/10/17 10:42:11;;;;;;;13.30;4.10;;;;;;;17.56;100.00;101510.41;7400570;19;20397;-58
2022/10/17 10:44:41;;;;;;;10.47;3.97;;;;;;;17.62;100.00;101505.34;7393999;19;20403;-57
2022/10/17 10:47:23;;;;;;;7.30;4.17;;;;;;;17.73;100.00;101507.34;7397507;19;20841;-61
2022/10/17 10:50:18;;;;;;;6.47;4.40;;;;;;;17.75;100.00;101513.47;7392539;19;20448;-61
2022/10/17 10:52:52;;;;;;;7.90;4.73;;;;;;;17.84;100.00;101515.44;7397332;19;20908;-55
2022/10/17 10:55:25;;;;;;;7.67;4.63;;;;;;;17.86;100.00;101514.63;7392585;19;20407;-58
2022/10/17 10:57:58;;;;;;;8.60;3.77;;;;;;;17.87;100.00;101513.78;7395782;19;20756;-60
2022/10/17 11:00:29;;;;;;;8.63;4.27;;;;;;;17.88;100.00;101514.63;7392586;19;20464;-58
2022/10/17 11:03:03;;;;;;;8.63;4.30;;;;;;;17.90;100.00;101519.06;7394201;19;20456;-57
2022/10/17 11:05:46;;;;;;;10.90;3.80;;;;;;;17.88;100.00;101525.97;7394128;19;20942;-60
2022/10/17 11:08:23;;;;;;;10.50;4.23;;;;;;;17.89;100.00;101532.94;7395191;19;20441;-58
2022/10/17 11:11:12;;;;;;;7.23;4.00;;;;;;;17.88;100.00;101536.41;7389868;19;20492;-56
2022/10/17 11:13:45;;;;;;;13.10;4.43;;;;;;;17.88;100.00;101531.19;7396079;19;20398;-55
2022/10/17 11:16:24;;;;;;;9.77;4.00;;;;;;;17.89;100.00;101525.13;7392679;19;20418;-55
2022/10/17 11:18:57;;;;;;;6.87;3.93;;;;;;;17.87;100.00;101529.44;7394173;19;20769;-54
2022/10/17 11:21:37;;;;;;;10.63;4.80;;;;;;;17.89;100.00;101522.50;7391274;19;20450;-55
2022/10/17 11:24:14;;;;;;;7.03;4.23;;;;;;;17.93;100.00;101529.59;7395478;19;20401;-56
2022/10/17 11:26:48;;;;;;;8.47;4.97;;;;;;;17.98;100.00;101534.91;7394043;19;20424;-59
2022/10/17 11:29:17;;;;;;;8.30;3.90;;;;;;;18.01;100.00;101531.47;7396354;19;20463;-51
2022/10/17 11:31:52;;;;;;;9.80;4.87;;;;;;;18.06;100.00;101537.72;7391842;19;20461;-55
2022/10/17 11:34:24;;;;;;;9.83;4.27;;;;;;;18.11;100.00;101541.34;7392148;19;20514;-61
2022/10/17 11:36:59;;;;;;;12.53;4.33;;;;;;;18.17;100.00;101536.25;7394767;19;20390;-56
2022/10/17 11:39:32;;;;;;;10.73;4.53;;;;;;;18.21;100.00;101543.28;7389131;19;20413;-52